METAR Benelux - 12 Dec 2017 - 2348 UTC - RocketRoute WX - rrwx.com
EBBR 122320Z 19009KT CAVOK 01/M01 Q1012 NOSIG EBCI 122320Z 20009KT 9999 FEW030 01/M00 Q1013 NOSIG EBAW 122320Z AUTO 19009KT CAVOK 02/M00 Q1012 EBLG 122320Z 18011KT 9999 FEW028 01/M01 Q1013 NOSIG EBOS 122320Z 18010KT CAVOK 02/M00 Q1010 NOSIG EHEH 122325Z AUTO 18007KT 9999 OVC150 01/M01 Q1012 BLU EHGG 122325Z AUTO 20013KT 3600 BR BKN004 OVC005 01/01 Q1009 EHBK 122325Z AUTO 20014KT 9999 SCT024 01/M00 Q1014 EHRD 122325Z AUTO 19012KT 160V220 9999 NSC 02/00 Q1010 R24/1///95 NOSIG EHAM 122325Z 18015KT CAVOK 01/M01 Q1010 NOSIG ELLX 122320Z 21008KT 9999 SCT007 BKN009 01/00 Q1015 NOSIG

RocketRoute WX - rrwx.com weather for pilots